Flight Track Log - Related Links

Times and Time Zones

All times are in EDT time to prevent confusion due to time zone crossing. See the N129AC flight status page for this flight to view local times or setup timezone preferences in your user account.

Time Position Orientation Groundspeed Altitude Reporting Facility
EDT Latitude Longitude Course Direction KTS MPH feet Rate Location/Type
Fri 06:29:30 PM 13.0260 -87.9120 301° West 424 488 34,000  Level FlightAware ADS-B
Fri 06:30:09 PM 13.0660 -87.9790 302° West 425 489 34,000  Level FlightAware ADS-B
Fri 06:30:54 PM 13.1120 -88.0550 302° West 424 488 34,000  Level FlightAware ADS-B
Fri 06:31:34 PM 13.1540 -88.1230 302° West 426 490 34,000  Level FlightAware ADS-B
Fri 06:32:19 PM 13.2010 -88.2010 302° West 427 491 34,000  Level FlightAware ADS-B
Fri 06:32:59 PM 13.2430 -88.2720 301° West 428 493 34,000  Level FlightAware ADS-B
Fri 06:33:39 PM 13.2850 -88.3400 302° West 430 495 34,000  Level FlightAware ADS-B
Fri 06:34:19 PM 13.3270 -88.4100 302° West 430 495 34,000  Level FlightAware ADS-B
Fri 06:35:00 PM 13.3700 -88.4800 302° West 431 496 34,000  Level FlightAware ADS-B
Fri 06:35:42 PM 13.4150 -88.5560 301° West 431 496 34,000  Level FlightAware ADS-B
Fri 06:36:27 PM 13.4600 -88.6310 302° West 430 495 34,000  Level FlightAware ADS-B
Fri 06:37:08 PM 13.5110 -88.6990 308° West 427 491 34,000  Level FlightAware ADS-B
Fri 06:37:48 PM 13.5590 -88.7650 307° West 425 489 34,000  Level FlightAware ADS-B
Fri 06:38:34 PM 13.6040 -88.8460 300° West 424 488 34,000  Level FlightAware ADS-B
Fri 06:39:14 PM 13.6500 -88.9110 306° West 425 489 34,000  Level FlightAware ADS-B
Fri 06:39:56 PM 13.7000 -88.9800 307° West 425 489 34,000  Level FlightAware ADS-B
Fri 06:40:38 PM 13.7540 -89.0410 312° West 424 488 34,000  Level FlightAware ADS-B
Fri 06:41:18 PM 13.8070 -89.1030 311° West 424 488 34,000  Level FlightAware ADS-B
Fri 06:42:03 PM 13.8560 -89.1770 304° West 422 486 34,000  Level FlightAware ADS-B
Fri 06:42:42 PM 13.9000 -89.2420 305° West 423 487 34,000  Level FlightAware ADS-B
Fri 06:43:24 PM 13.9470 -89.3110 305° West 421 484 34,000  Level FlightAware ADS-B
Fri 06:44:08 PM 13.9970 -89.3830 306° West 420 483 34,000  Level FlightAware ADS-B
Fri 06:44:52 PM 14.0480 -89.4550 306° West 421 484 34,000  Level FlightAware ADS-B
Fri 06:45:24 PM 14.0840 -89.5070 306° West 422 486 34,000  Level FlightAware ADS-B
Fri 06:46:43 PM 14.1520 -89.5950 309° West 421 484 34,000  Level FlightAware ADS-B
Fri 06:47:24 PM 14.2350 -89.6890 312° West 422 486 34,000  Level FlightAware ADS-B
Fri 06:48:05 PM 14.2890 -89.7490 313° West 423 487 34,000  Level FlightAware ADS-B
Fri 06:48:45 PM 14.3310 -89.7970 312° West 422 486 34,000  Level FlightAware ADS-B
Fri 06:49:27 PM 14.3980 -89.8710 313° West 417 480 34,000  Level FlightAware ADS-B
Fri 06:50:12 PM 14.4540 -89.9390 310° West 420 483 34,000  Level FlightAware ADS-B
Fri 06:50:52 PM 14.4980 -90.0080 303° West 425 489 34,000  Level FlightAware ADS-B
Fri 06:51:32 PM 14.5400 -90.0750 303° West 427 491 34,000  Level FlightAware ADS-B
Fri 06:52:17 PM 14.5830 -90.1570 298° West 428 493 34,000  Level FlightAware ADS-B
Fri 06:52:57 PM 14.6190 -90.2290 297° West 424 488 34,000  Level FlightAware ADS-B
Fri 06:53:41 PM 14.6590 -90.3080 298° West 424 488 34,000  Level FlightAware ADS-B
Fri 06:54:22 PM 14.6960 -90.3820 297° West 424 488 34,000  Level FlightAware ADS-B
Fri 06:55:02 PM 14.7320 -90.4530 298° West 424 488 34,000  Level FlightAware ADS-B
Fri 06:56:01 PM 14.7880 -90.5610 298° West 426 490 34,000  Level FlightAware ADS-B
Fri 06:56:43 PM 14.8260 -90.6340 298° West 426 490 34,000  Level FlightAware ADS-B
Fri 06:57:21 PM 14.8620 -90.7050 298° West 427 491 34,000  Level FlightAware ADS-B
Fri 06:58:07 PM 14.9100 -90.7830 302° West 427 491 34,000  Level FlightAware ADS-B
Fri 06:58:47 PM 14.9550 -90.8490 305° West 427 491 34,000  Level FlightAware ADS-B
Fri 06:59:32 PM 15.0070 -90.9260 305° West 427 491 34,000  Level FlightAware ADS-B
Fri 07:00:07 PM 15.0460 -90.9830 305° West 427 491 34,000  Level FlightAware ADS-B
Fri 07:00:52 PM 15.0980 -91.0600 305° West 428 493 34,000  Level FlightAware ADS-B
Fri 07:01:39 PM 15.1500 -91.1380 305° West 428 493 34,000  Level FlightAware ADS-B
Fri 07:02:20 PM 15.1970 -91.2060 306° West 428 493 34,000  Level FlightAware ADS-B
Fri 07:03:00 PM 15.2430 -91.2740 305° West 428 493 34,000  Level FlightAware ADS-B
Fri 07:03:40 PM 15.2880 -91.3400 305° West 428 493 34,000  Level FlightAware ADS-B
Fri 07:04:24 PM 15.3430 -91.4080 310° West 422 486 34,000  Level FlightAware ADS-B
Fri 07:05:09 PM 15.3910 -91.4670 310° West 422 486 34,000  Level FlightAware ADS-B
Fri 07:05:54 PM 15.4390 -91.5260 310° West 422 486 34,000  Level FlightAware ADS-B
Fri 07:06:31 PM 15.4790 -91.5750 310° West 422 486 34,000  Level FlightAware ADS-B
Fri 07:07:31 PM 15.5430 -91.6540 310° West 422 486 34,000  Level FlightAware ADS-B
Fri 07:08:07 PM 15.5810 -91.7020 309° West 422 486 34,000  Level FlightAware ADS-B
Fri 07:09:21 PM 15.6600 -91.8000 310° West 422 486 34,000  Level FlightAware ADS-B
Fri 07:09:59 PM 15.7010 -91.8500 310° West 422 486 34,000  Level FlightAware ADS-B
Fri 07:10:45 PM 15.7500 -91.9110 310° West 422 486 34,000  Level FlightAware ADS-B
Fri 07:11:36 PM 15.8040 -91.9780 310° West 422 486 34,000  Level FlightAware ADS-B
Fri 07:12:12 PM 15.8430 -92.0250 311° West 422 486 34,000  Level FlightAware ADS-B
Fri 07:13:00 PM 15.8940 -92.0890 310° West 422 486 34,000  Level FlightAware ADS-B
Fri 07:13:34 PM 15.9300 -92.1340 310° West 422 486 34,000  Level FlightAware ADS-B
Fri 07:14:21 PM 15.9800 -92.1960 310° West 422 486 34,000 -83 Level FlightAware ADS-B
Fri 07:17:00 PM 16.3334 -92.3701 335° Northwest  Level Estimated
Fri 07:18:00 PM 16.4667 -92.4360 335° Northwest  Level Estimated
Fri 07:19:00 PM 16.6001 -92.5020 335° Northwest  Level Estimated
Fri 07:20:00 PM 16.7334 -92.5681 335° Northwest  Level Estimated
Fri 07:21:00 PM 16.8666 -92.6342 335° Northwest  Level Estimated
Fri 07:22:00 PM 16.9999 -92.7005 335° Northwest  Level Estimated
Fri 07:23:00 PM 17.1331 -92.7668 335° Northwest  Level Estimated
Fri 07:24:00 PM 17.2663 -92.8333 335° Northwest  Level Estimated
Fri 07:25:00 PM 17.3995 -92.8998 335° Northwest  Level Estimated
Fri 07:26:00 PM 17.5326 -92.9664 334° Northwest  Level Estimated
Fri 07:27:00 PM 17.6658 -93.0331 334° Northwest  Level Estimated
Fri 07:28:00 PM 17.7989 -93.1000 334° Northwest  Level Estimated
Fri 07:29:00 PM 17.9320 -93.1669 334° Northwest  Level Estimated
Fri 07:30:00 PM 18.0650 -93.2339 334° Northwest  Level Estimated
Fri 07:31:00 PM 18.1981 -93.3011 334° Northwest  Level Estimated
Fri 07:32:00 PM 18.3311 -93.3683 334° Northwest  Level Estimated
Fri 07:33:00 PM 18.4641 -93.4356 334° Northwest  Level Estimated
Fri 07:34:00 PM 18.5971 -93.5031 334° Northwest  Level Estimated
Fri 07:35:00 PM 18.7300 -93.5706 334° Northwest  Level Estimated
Fri 07:36:00 PM 18.8629 -93.6383 334° Northwest  Level Estimated
Fri 07:37:00 PM 18.9958 -93.7060 334° Northwest  Level Estimated
Fri 07:38:00 PM 19.1287 -93.7739 334° Northwest  Level Estimated
Fri 07:39:00 PM 19.2616 -93.8419 334° Northwest  Level Estimated
Fri 07:40:00 PM 19.3944 -93.9100 334° Northwest  Level Estimated
Fri 07:41:00 PM 19.5272 -93.9782 334° Northwest  Level Estimated
Fri 07:42:00 PM 19.6600 -94.0465 334° Northwest  Level Estimated
Fri 07:43:00 PM 19.7927 -94.1149 334° Northwest  Level Estimated
Fri 07:44:00 PM 19.9255 -94.1834 334° Northwest  Level Estimated
Fri 07:45:00 PM 20.0582 -94.2521 334° Northwest  Level Estimated
Fri 07:46:00 PM 20.1908 -94.3209 334° Northwest  Level Estimated
Fri 07:47:00 PM 20.3235 -94.3897 334° Northwest  Level Estimated
Fri 07:48:00 PM 20.4561 -94.4588 334° Northwest  Level Estimated
Fri 07:49:00 PM 20.5887 -94.5279 334° Northwest  Level Estimated
Fri 07:50:00 PM 20.7212 -94.5971 334° Northwest  Level Estimated
Fri 07:51:00 PM 20.8538 -94.6665 334° Northwest  Level Estimated
Fri 07:52:00 PM 20.9863 -94.7360 334° Northwest  Level Estimated
Fri 07:53:00 PM 21.1188 -94.8056 334° Northwest  Level Estimated
Fri 07:54:00 PM 21.2512 -94.8753 334° Northwest  Level Estimated
Fri 07:55:00 PM 21.3836 -94.9452 334° Northwest  Level Estimated
Fri 07:56:00 PM 21.5160 -95.0152 334° Northwest  Level Estimated
Fri 07:57:00 PM 21.6484 -95.0853 334° Northwest  Level Estimated
Fri 07:58:00 PM 21.7807 -95.1555 334° Northwest  Level Estimated
Fri 07:59:00 PM 21.9130 -95.2259 334° Northwest  Level Estimated
Fri 08:00:00 PM 22.0453 -95.2964 334° Northwest  Level Estimated
Fri 08:01:00 PM 22.1775 -95.3671 334° Northwest  Level Estimated
Fri 08:02:00 PM 22.3097 -95.4378 334° Northwest  Level Estimated
Fri 08:03:00 PM 22.4419 -95.5087 334° Northwest  Level Estimated
Fri 08:04:00 PM 22.5741 -95.5798 334° Northwest  Level Estimated
Fri 08:05:00 PM 22.7062 -95.6509 334° Northwest  Level Estimated
Fri 08:06:00 PM 22.8383 -95.7223 334° Northwest  Level Estimated
Fri 08:07:00 PM 22.9703 -95.7937 334° Northwest  Level Estimated
Fri 08:08:00 PM 23.1024 -95.8653 333° Northwest  Level Estimated
Fri 08:09:00 PM 23.2343 -95.9370 333° Northwest  Level Estimated
Fri 08:10:00 PM 23.3663 -96.0089 333° Northwest  Level Estimated
Fri 08:11:00 PM 23.4982 -96.0809 333° Northwest  Level Estimated
Fri 08:12:00 PM 23.6301 -96.1531 333° Northwest  Level Estimated
Fri 08:13:00 PM 23.7620 -96.2254 333° Northwest  Level Estimated
Fri 08:14:00 PM 23.8938 -96.2978 333° Northwest  Level Estimated
Fri 08:15:00 PM 24.0256 -96.3704 333° Northwest  Level Estimated
Fri 08:16:00 PM 24.1574 -96.4432 333° Northwest  Level Estimated
Fri 08:17:00 PM 24.2891 -96.5161 333° Northwest  Level Estimated
Fri 08:18:00 PM 24.4208 -96.5891 333° Northwest  Level Estimated
Fri 08:19:00 PM 24.5524 -96.6624 333° Northwest  Level Estimated
Fri 08:20:00 PM 24.6840 -96.7357 333° Northwest  Level Estimated
Fri 08:21:00 PM 24.8156 -96.8092 333° Northwest  Level Estimated
Fri 08:22:00 PM 24.9472 -96.8829 333° Northwest  Level Estimated
Fri 08:23:00 PM 25.0787 -96.9567 333° Northwest  Level Estimated
Fri 08:24:00 PM 25.2101 -97.0307 333° Northwest  Level Estimated
Fri 08:25:00 PM 25.3416 -97.1049 333° Northwest  Level Estimated
Fri 08:26:00 PM 25.4730 -97.1792 333° Northwest  Level Estimated
Fri 08:27:00 PM 25.6043 -97.2536 333° Northwest  Level Estimated
Fri 08:28:00 PM 25.7357 -97.3283 333° Northwest  Level Estimated
Fri 08:29:00 PM 25.8670 -97.4031 333° Northwest  Level Estimated
Fri 08:30:00 PM 25.9068 -97.4258 333° Northwest  Level Estimated
Fri 08:31:00 PM 25.9068 -97.4258 318° Northwest  Level Estimated
Fri 08:32:00 PM 25.9068 -97.4258 318° Northwest  Level Estimated
Fri 08:33:00 PM 25.9068 -97.4258 318° Northwest  Level Estimated
Fri 08:34:00 PM 25.9068 -97.4258 318° Northwest  Level Estimated
Fri 08:35:00 PM 25.9068 -97.4258 318° Northwest  Level Estimated
Fri 08:36:00 PM 25.9068 -97.4258 318° Northwest  Level Estimated
Fri 08:37:00 PM 25.9068 -97.4258 318° Northwest  Level Estimated
Fri 08:38:00 PM 25.9068 -97.4258 318° Northwest  Level Estimated
Fri 08:38:49 PM 24.5800 -97.3530 318° Northwest 398 458 26,900  Level FlightAware ADS-B
Fri 08:39:00 PM 25.9068 -97.4258 318° Northwest  Level Estimated
Fri 08:39:31 PM 24.6370 -97.3610 353° North 395 455 25,600  Level FlightAware ADS-B
Fri 08:40:15 PM 24.7360 -97.3740 353° North 388 447 23,500 -2,442 Descending FlightAware ADS-B
Fri 08:40:57 PM 24.8100 -97.3850 352° North 377 434 22,100 -2,122 Descending FlightAware ADS-B
Fri 08:41:37 PM 24.8750 -97.3980 350° North 371 427 20,600 -2,214 Descending FlightAware ADS-B
Fri 08:42:21 PM 24.9490 -97.4100 352° North 367 422 19,000 -2,023 Descending FlightAware ADS-B
Fri 08:43:03 PM 25.0210 -97.4180 354° North 356 410 17,700 -2,000 Descending FlightAware ADS-B
Fri 08:43:42 PM 25.0850 -97.4250 354° North 352 405 16,300 -1,786 Descending FlightAware ADS-B
Fri 08:44:27 PM 25.1510 -97.4340 353° North 338 389 15,200 -2,051 Descending FlightAware ADS-B
Fri 08:45:01 PM 25.2080 -97.4420 353° North 347 399 13,600 -2,258 Descending FlightAware ADS-B
Fri 08:46:00 PM 25.2990 -97.4560 352° North 343 395 11,700 -1,837 Descending FlightAware ADS-B
Fri 08:46:39 PM 25.3620 -97.4650 353° North 335 386 10,600 -1,565 Descending FlightAware ADS-B
Fri 08:47:09 PM 25.4080 -97.4710 353° North 324 373 9,900 -1,241 Descending FlightAware ADS-B
Fri 08:47:37 PM 25.4490 -97.4770 352° North 310 357 9,400 -1,179 Descending FlightAware ADS-B
Fri 08:48:05 PM 25.4880 -97.4830 352° North 301 346 8,800 -1,418 Descending FlightAware ADS-B
Fri 08:48:32 PM 25.5260 -97.4880 353° North 300 345 8,100 -1,607 Descending FlightAware ADS-B
Fri 08:49:01 PM 25.5640 -97.4940 352° North 301 346 7,300 -1,627 Descending FlightAware ADS-B
Fri 08:49:31 PM 25.6060 -97.4990 354° North 300 345 6,500 -1,579 Descending FlightAware ADS-B
Fri 08:49:39 PM 25.6180 -97.5010 351° North 298 343 6,300 -1,579 Descending FlightAware ADS-B
Fri 08:50:09 PM 25.6590 -97.5070 352° North 296 341 5,500 -1,429 Descending FlightAware ADS-B
Fri 08:50:42 PM 25.7030 -97.5130 353° North 289 333 4,800 -1,200 Descending FlightAware ADS-B
Fri 08:51:09 PM 25.7370 -97.5180 352° North 283 326 4,300 -1,231 Descending FlightAware ADS-B
Fri 08:51:21 PM 25.7530 -97.5200 354° North 281 323 4,000 -1,358 Descending FlightAware ADS-B
Fri 08:52:02 PM 25.8020 -97.5210 359° North 278 320 3,100 -985 Descending FlightAware ADS-B
Fri 08:52:28 PM 25.8390 -97.5230 357° North 275 316 2,900 -632 Descending FlightAware ADS-B
Fri 08:52:59 PM 25.8780 -97.5190 North 278 320 2,500 -842 Descending FlightAware ADS-B
Fri 08:53:25 PM 25.9110 -97.5140 North 268 308 2,100 -621 Descending FlightAware ADS-B
Fri 08:53:57 PM 25.9500 -97.5110 North 243 280 1,900 -226 Descending FlightAware ADS-B
Fri 08:54:18 PM 25.9730 -97.5090 North 233 268 1,900  Level FlightAware ADS-B
Fri 08:54:53 PM 26.0090 -97.5020 10° North 229 264 1,900  Level FlightAware ADS-B
Fri 08:55:19 PM 26.0370 -97.4990 North 232 267 1,900  Level FlightAware ADS-B
Fri 08:55:29 PM 26.0470 -97.4970 10° North 232 267 1,900  Level FlightAware ADS-B
Fri 08:56:06 PM 26.0860 -97.5090 345° North 242 278 1,900 113 Level FlightAware ADS-B
Fri 08:56:22 PM 26.0980 -97.5230 314° West 241 277 2,000  Climbing FlightAware ADS-B
Fri 08:56:35 PM 26.1020 -97.5360 289° West 227 261 1,900 -231 Descending FlightAware ADS-B
Fri 08:56:48 PM 26.1000 -97.5500 261° West 211 243 1,900  Level FlightAware ADS-B
Fri 08:57:19 PM 26.0820 -97.5750 231° Southwest 180 207 1,900  Level FlightAware ADS-B
Fri 08:57:30 PM 26.0740 -97.5770 193° South 169 194 1,900  Level FlightAware ADS-B
Fri 08:57:59 PM 26.0510 -97.5740 173° South 165 190 1,900  Level FlightAware ADS-B
Fri 08:58:15 PM 26.0400 -97.5710 166° South 166 191 1,900 207 Level FlightAware ADS-B
Fri 08:58:28 PM 26.0310 -97.5680 163° South 159 183 2,000  Climbing FlightAware ADS-B
Fri 08:58:55 PM 26.0170 -97.5500 131° Southeast 163 188 1,900  Descending FlightAware ADS-B
Fri 08:59:21 PM 26.0030 -97.5340 134° Southeast 163 188 2,000  Climbing FlightAware ADS-B
Fri 08:59:39 PM 25.9930 -97.5240 138° Southeast 152 175 1,900 -522 Descending FlightAware ADS-B
Fri 09:00:07 PM 25.9790 -97.5100 138° Southeast 141 162 1,600 -750 Descending FlightAware ADS-B
Fri 09:00:19 PM 25.9740 -97.5040 133° Southeast 139 160 1,400 -600 Descending FlightAware ADS-B
Fri 09:00:47 PM 25.9610 -97.4900 136° Southeast 135 155 1,200 -536 Descending FlightAware ADS-B
Fri 09:01:15 PM 25.9480 -97.4770 138° Southeast 131 151 900 -600 Descending FlightAware ADS-B
Fri 09:01:27 PM 25.9440 -97.4710 127° Southeast 130 150 800 -714 Descending FlightAware ADS-B
Fri 09:01:57 PM 25.9310 -97.4570 136° Southeast 131 151 400 -700 Descending FlightAware ADS-B
Fri 09:02:27 PM 25.9180 -97.4430 136° Southeast 131 151 100 -600 Descending FlightAware ADS-B
Fri 09:02:55 PM 25.9050 -97.4300 138° Southeast 110 127 -214 Descending FlightAware ADS-B
Fri 09:03:23 PM 25.8990 -97.4250 143° Southeast 37 43  Level FlightAware ADS-B
Fri 09:04:14 PM 25.8990 -97.4270 270° West 34 39  Level FlightAware ADS-B
Fri 09:04:45 PM 25.9020 -97.4310 310° West 33 38  Level FlightAware ADS-B
Fri 09:05:13 PM 25.9030 -97.4340 290° West 27 31  Level FlightAware ADS-B
Fri 09:06:23 PM 25.9050 -97.4400 290° West 30 35  Level FlightAware ADS-B
Fri 09:09:00 PM 25.9068 -97.4258 250° West  Level Estimated

Login

Don't have an account? Register now (free) for customized features, flight alerts, and more!